createdAt,value
2023-05-19T00:04:50.591Z,5.30
2023-05-19T00:14:53.977Z,4.70
2023-05-19T00:24:57.118Z,4.80
2023-05-19T00:35:00.261Z,4.50
2023-05-19T00:45:03.585Z,4.10
2023-05-19T00:55:08.267Z,5.00
2023-05-19T01:05:12.116Z,4.80
2023-05-19T01:15:15.832Z,5.00
2023-05-19T01:25:30.866Z,4.70
2023-05-19T01:35:37.214Z,5.00
2023-05-19T01:45:40.841Z,5.70
2023-05-19T01:55:48.353Z,6.00
2023-05-19T02:06:36.572Z,6.20
2023-05-19T02:16:42.557Z,6.40
2023-05-19T02:26:46.550Z,5.60
2023-05-19T02:36:50.100Z,5.60
2023-05-19T02:46:53.386Z,5.40
2023-05-19T02:56:57.640Z,5.00
2023-05-19T03:07:00.723Z,4.80
2023-05-19T03:17:04.112Z,5.30
2023-05-19T03:27:07.559Z,5.40
2023-05-19T03:37:11.129Z,5.00
2023-05-19T03:47:14.692Z,4.50
2023-05-19T03:57:40.059Z,4.00
2023-05-19T04:07:46.919Z,3.30
2023-05-19T04:17:50.067Z,2.90
2023-05-19T04:27:57.901Z,3.30
2023-05-19T04:38:01.827Z,3.90
2023-05-19T04:48:07.108Z,3.60
2023-05-19T04:58:10.634Z,2.70
2023-05-19T05:08:16.299Z,2.80
2023-05-19T05:18:20.213Z,2.50
2023-05-19T05:28:23.850Z,2.60
2023-05-19T05:38:27.219Z,3.00
2023-05-19T05:48:30.957Z,2.90
2023-05-19T05:58:37.332Z,3.20
2023-05-19T06:08:40.972Z,3.00
2023-05-19T06:18:44.413Z,4.10
2023-05-19T06:28:47.653Z,3.40
2023-05-19T06:38:50.927Z,3.00
2023-05-19T06:48:54.046Z,2.70
2023-05-19T06:58:59.030Z,3.70
2023-05-19T07:09:06.675Z,3.90
2023-05-19T07:19:13.755Z,4.00
2023-05-19T07:29:17.119Z,3.70
2023-05-19T07:39:20.361Z,3.80
2023-05-19T07:49:23.613Z,4.50
2023-05-19T07:59:26.813Z,4.40
2023-05-19T08:09:30.073Z,4.30
2023-05-19T08:19:33.164Z,4.70
2023-05-19T08:29:36.859Z,4.70
2023-05-19T08:39:40.141Z,4.40
2023-05-19T08:49:45.708Z,4.80
2023-05-19T08:59:51.341Z,4.50
2023-05-19T09:09:54.422Z,4.60
2023-05-19T09:20:01.664Z,3.70
2023-05-19T09:40:16.224Z,2.80
2023-05-19T09:50:19.359Z,4.20
2023-05-19T10:00:23.668Z,3.70
2023-05-19T10:10:27.838Z,4.00
2023-05-19T10:20:31.825Z,4.30
2023-05-19T10:30:40.206Z,5.50
2023-05-19T10:41:10.674Z,5.60
2023-05-19T10:51:15.035Z,6.40
2023-05-19T11:01:25.159Z,6.00
2023-05-19T11:11:48.291Z,7.70
2023-05-19T11:21:55.048Z,6.70
2023-05-19T11:31:59.526Z,6.70
2023-05-19T11:42:02.872Z,7.50
2023-05-19T11:52:06.787Z,7.00
2023-05-19T12:02:14.066Z,6.10
2023-05-19T12:22:22.399Z,6.50
2023-05-19T12:32:28.997Z,5.70
2023-05-19T12:42:32.494Z,6.40
2023-05-19T12:52:47.186Z,6.10
2023-05-19T13:03:07.700Z,7.00
2023-05-19T13:13:12.222Z,6.30
2023-05-19T13:23:16.171Z,7.10
2023-05-19T13:33:19.629Z,8.60
2023-05-19T13:43:22.818Z,7.40
2023-05-19T13:53:27.038Z,8.40
2023-05-19T14:03:30.542Z,8.60
2023-05-19T14:13:37.220Z,10.70
2023-05-19T14:23:42.880Z,7.80
2023-05-19T14:37:44.443Z,8.80
2023-05-19T14:45:12.345Z,10.50
2023-05-19T14:55:20.522Z,8.80
2023-05-19T15:05:24.571Z,10.00
2023-05-19T15:15:27.684Z,11.10
2023-05-19T15:25:30.933Z,11.30
2023-05-19T15:46:44.776Z,13.00
2023-05-19T15:56:48.312Z,12.50
2023-05-19T16:07:13.340Z,11.70
2023-05-19T16:17:16.418Z,11.20
2023-05-19T16:38:19.541Z,11.20
2023-05-19T16:48:22.748Z,11.00
2023-05-19T16:58:27.943Z,10.30
2023-05-19T17:08:32.170Z,12.50
2023-05-19T17:18:37.598Z,11.30
2023-05-19T17:28:40.666Z,13.90
2023-05-19T17:38:43.846Z,11.50
2023-05-19T17:48:47.169Z,10.40
2023-05-19T17:58:50.972Z,12.20
2023-05-19T18:08:58.334Z,12.20
2023-05-19T18:19:02.060Z,12.20
2023-05-19T18:29:05.854Z,12.50
2023-05-19T18:39:09.501Z,14.20
2023-05-19T18:49:13.251Z,14.10
2023-05-19T18:59:16.723Z,12.60
2023-05-19T19:09:21.300Z,12.80
2023-05-19T19:19:28.426Z,12.30
2023-05-19T19:29:34.120Z,13.50
2023-05-19T19:39:39.670Z,12.90
2023-05-19T19:49:49.380Z,12.30
2023-05-19T19:59:56.715Z,11.40
2023-05-19T20:10:09.316Z,12.50
2023-05-19T20:20:15.938Z,11.40
2023-05-19T20:40:26.095Z,12.30
2023-05-19T20:50:29.201Z,11.40
2023-05-19T21:00:32.652Z,11.60
2023-05-19T21:10:36.118Z,12.60
2023-05-19T21:20:40.033Z,14.00
2023-05-19T21:30:47.884Z,13.60
2023-05-19T21:40:51.377Z,12.40
2023-05-19T21:50:55.426Z,12.10
2023-05-19T22:00:59.538Z,11.90
2023-05-19T22:11:02.923Z,11.70
2023-05-19T22:21:06.448Z,12.50
2023-05-19T22:31:09.566Z,12.40
2023-05-19T22:41:12.804Z,13.00
2023-05-19T22:51:16.321Z,12.50
2023-05-19T23:01:19.462Z,14.70
2023-05-19T23:11:22.687Z,13.00
2023-05-19T23:21:25.811Z,13.80
2023-05-19T23:31:29.227Z,11.80
2023-05-19T23:41:32.393Z,10.80
2023-05-19T23:51:35.643Z,11.40
